createdAt,value
2023-07-25T00:00:40.089Z,98715.06
2023-07-25T00:01:21.847Z,98714.78
2023-07-25T00:02:03.495Z,98717.75
2023-07-25T00:02:45.211Z,98697.84
2023-07-25T00:03:26.958Z,98707.78
2023-07-25T00:04:09.306Z,98705.09
2023-07-25T00:04:51.122Z,98635.78
2023-07-25T00:05:32.719Z,98639.78
2023-07-25T00:06:14.453Z,98709.91
2023-07-25T00:06:56.023Z,98696.72
2023-07-25T00:07:37.575Z,98694.84
2023-07-25T00:08:19.207Z,98634.16
2023-07-25T00:09:00.820Z,98706.97
2023-07-25T00:09:42.585Z,98697.81
2023-07-25T00:10:24.594Z,98703.72
2023-07-25T00:11:12.687Z,98698.88
2023-07-25T00:11:54.277Z,98677.91
2023-07-25T00:12:37.179Z,98693.78
2023-07-25T00:13:18.865Z,98692.69
2023-07-25T00:14:00.543Z,98691.34
2023-07-25T00:14:42.194Z,98690.56
2023-07-25T00:15:23.922Z,98694.63
2023-07-25T00:16:05.656Z,98672.88
2023-07-25T00:16:47.427Z,98678.78
2023-07-25T00:17:29.125Z,98680.13
2023-07-25T00:18:10.748Z,98694.13
2023-07-25T00:18:52.338Z,98673.97
2023-07-25T00:19:33.943Z,98689.00
2023-07-25T00:20:15.664Z,98672.63
2023-07-25T00:20:57.292Z,98672.34
2023-07-25T00:21:38.917Z,98682.53
2023-07-25T00:22:20.693Z,98683.09
2023-07-25T00:23:02.367Z,98679.06
2023-07-25T00:23:43.955Z,98680.94
2023-07-25T00:24:25.551Z,98669.94
2023-07-25T00:25:07.812Z,98672.06
2023-07-25T00:25:49.578Z,98673.97
2023-07-25T00:26:31.873Z,98676.91
2023-07-25T00:27:13.498Z,98664.81
2023-07-25T00:27:55.085Z,98673.97
2023-07-25T00:28:36.739Z,98681.22
2023-07-25T00:29:18.417Z,98611.59
2023-07-25T00:30:00.025Z,98681.75
2023-07-25T00:30:41.644Z,98658.59
2023-07-25T00:31:23.408Z,98693.59
2023-07-25T00:32:05.685Z,98680.69
2023-07-25T00:32:47.359Z,98681.50
2023-07-25T00:33:29.045Z,98676.91
2023-07-25T00:34:10.621Z,98669.41
2023-07-25T00:34:52.307Z,98676.13
2023-07-25T00:35:33.938Z,98645.19
2023-07-25T00:36:15.524Z,98608.63
2023-07-25T00:36:57.217Z,98680.94
2023-07-25T00:37:38.934Z,98670.47
2023-07-25T00:38:20.651Z,98668.56
2023-07-25T00:39:02.357Z,98650.03
2023-07-25T00:39:43.948Z,98667.22
2023-07-25T00:40:25.787Z,98659.44
2023-07-25T00:41:07.475Z,98598.44
2023-07-25T00:41:49.526Z,98659.41
2023-07-25T00:42:31.380Z,98658.34
2023-07-25T00:43:12.987Z,98641.16
2023-07-25T00:43:54.548Z,98643.03
2023-07-25T00:44:36.132Z,98642.25
2023-07-25T00:45:17.837Z,98636.84
2023-07-25T00:45:59.973Z,98643.59
2023-07-25T00:46:43.321Z,98652.97
2023-07-25T00:47:25.371Z,98641.44
2023-07-25T00:48:07.081Z,98657.25
2023-07-25T00:48:48.941Z,98650.81
2023-07-25T00:49:32.046Z,98658.09
2023-07-25T00:50:13.690Z,98663.47
2023-07-25T00:50:55.628Z,98603.81
2023-07-25T00:51:41.965Z,98653.50
2023-07-25T00:52:23.774Z,98658.63
2023-07-25T00:53:07.336Z,98659.94
2023-07-25T00:53:49.327Z,98628.22
2023-07-25T00:54:30.954Z,98636.56
2023-07-25T00:55:13.955Z,98633.59
2023-07-25T00:55:56.550Z,98651.06
2023-07-25T00:56:38.375Z,98636.03
2023-07-25T00:57:20.741Z,98646.25
2023-07-25T00:58:02.825Z,98626.63
2023-07-25T00:58:45.510Z,98645.72
2023-07-25T00:59:27.142Z,98644.13
2023-07-25T01:00:09.186Z,98647.34
2023-07-25T01:00:50.819Z,98652.47
2023-07-25T01:01:32.902Z,98641.44
2023-07-25T01:02:16.166Z,98631.19
2023-07-25T01:02:57.889Z,98643.34
2023-07-25T01:03:40.949Z,98628.78
2023-07-25T01:04:22.876Z,98646.25
2023-07-25T01:05:05.201Z,98629.59
2023-07-25T01:05:50.212Z,98635.25
2023-07-25T01:06:33.372Z,98633.09
2023-07-25T01:07:15.347Z,98636.31
2023-07-25T01:07:57.192Z,98644.38
2023-07-25T01:08:53.807Z,98560.28
2023-07-25T01:09:43.682Z,98628.78
2023-07-25T01:10:25.316Z,98644.09
2023-07-25T01:11:08.354Z,98607.56
2023-07-25T01:11:50.114Z,98562.97
2023-07-25T01:12:31.709Z,98587.16
2023-07-25T01:13:13.372Z,98639.78
2023-07-25T01:13:55.485Z,98625.28
2023-07-25T01:14:38.826Z,98645.16
2023-07-25T01:15:20.502Z,98638.72
2023-07-25T01:16:02.273Z,98638.19
2023-07-25T01:16:44.183Z,98593.84
2023-07-25T01:17:28.348Z,98633.88
2023-07-25T01:18:11.207Z,98611.31
2023-07-25T01:18:55.103Z,98646.25
2023-07-25T01:19:38.796Z,98633.09
2023-07-25T01:20:20.912Z,98643.56
2023-07-25T01:21:03.257Z,98635.50
2023-07-25T01:21:45.114Z,98637.38
2023-07-25T01:22:27.856Z,98584.47
2023-07-25T01:23:11.850Z,98632.28
2023-07-25T01:23:53.562Z,98623.41
2023-07-25T01:24:43.322Z,98632.28
2023-07-25T01:25:26.090Z,98629.59
2023-07-25T01:26:07.736Z,98612.41
2023-07-25T01:26:49.326Z,98623.44
2023-07-25T01:27:30.929Z,98629.88
2023-07-25T01:28:12.666Z,98612.97
2023-07-25T01:28:54.341Z,98629.88
2023-07-25T01:29:35.983Z,98621.53
2023-07-25T01:30:17.655Z,98630.13
2023-07-25T01:30:59.571Z,98637.09
2023-07-25T01:31:41.313Z,98628.25
2023-07-25T01:32:23.063Z,98636.56
2023-07-25T01:33:04.747Z,98633.34
2023-07-25T01:33:46.496Z,98636.84
2023-07-25T01:34:28.207Z,98639.00
2023-07-25T01:35:09.882Z,98625.28
2023-07-25T01:35:51.530Z,98637.63
2023-07-25T01:36:33.215Z,98554.56
2023-07-25T01:37:14.834Z,98621.25
2023-07-25T01:37:56.486Z,98616.69
2023-07-25T01:38:38.094Z,98622.31
2023-07-25T01:39:19.802Z,98620.19
2023-07-25T01:40:01.542Z,98625.31
2023-07-25T01:40:43.464Z,98623.41
2023-07-25T01:41:25.080Z,98621.00
2023-07-25T01:42:06.909Z,98630.13
2023-07-25T01:42:48.463Z,98572.38
2023-07-25T01:43:30.109Z,98624.50
2023-07-25T01:44:12.114Z,98618.84
2023-07-25T01:44:53.777Z,98605.69
2023-07-25T01:45:35.783Z,98604.63
2023-07-25T01:46:17.444Z,98617.50
2023-07-25T01:46:59.135Z,98598.97
2023-07-25T01:47:41.020Z,98609.72
2023-07-25T01:48:22.740Z,98598.69
2023-07-25T01:49:04.380Z,98616.16
2023-07-25T01:49:46.000Z,98605.13
2023-07-25T01:50:28.549Z,98620.44
2023-07-25T01:51:10.168Z,98598.97
2023-07-25T01:51:51.800Z,98612.13
2023-07-25T01:52:34.628Z,98614.84
2023-07-25T01:53:16.785Z,98624.50
2023-07-25T01:53:59.980Z,98621.31
2023-07-25T01:54:41.614Z,98623.41
2023-07-25T01:55:23.271Z,98627.44
2023-07-25T01:56:04.990Z,98625.56
2023-07-25T01:56:50.041Z,98630.13
2023-07-25T01:57:32.413Z,98621.53
2023-07-25T01:58:14.137Z,98608.91
2023-07-25T01:58:55.761Z,98612.66
2023-07-25T01:59:37.504Z,98650.81
2023-07-25T02:00:19.159Z,98618.06
2023-07-25T02:01:01.297Z,98629.88
2023-07-25T02:01:45.357Z,98619.13
2023-07-25T02:02:27.166Z,98632.81
2023-07-25T02:03:11.935Z,98627.72
2023-07-25T02:03:53.786Z,98629.59
2023-07-25T02:04:35.539Z,98634.16
2023-07-25T02:05:20.180Z,98634.72
2023-07-25T02:06:01.808Z,98628.25
2023-07-25T02:06:43.680Z,98614.28
2023-07-25T02:07:26.755Z,98635.53
2023-07-25T02:08:12.629Z,98628.78
2023-07-25T02:08:54.239Z,98634.97
2023-07-25T02:09:35.964Z,98638.72
2023-07-25T02:10:17.730Z,98576.94
2023-07-25T02:10:59.422Z,98638.72
2023-07-25T02:11:41.046Z,98636.28
2023-07-25T02:12:23.167Z,98638.97
2023-07-25T02:13:06.874Z,98623.38
2023-07-25T02:13:48.436Z,98633.09
2023-07-25T02:14:30.072Z,98633.06
2023-07-25T02:15:11.834Z,98645.69
2023-07-25T02:15:53.515Z,98636.81
2023-07-25T02:16:37.965Z,98571.81
2023-07-25T02:17:20.734Z,98647.56
2023-07-25T02:18:03.273Z,98640.88
2023-07-25T02:18:44.961Z,98609.94
2023-07-25T02:19:26.776Z,98643.00
2023-07-25T02:20:09.612Z,98644.34
2023-07-25T02:20:51.354Z,98651.34
2023-07-25T02:21:33.742Z,98644.91
2023-07-25T02:22:15.580Z,98638.72
2023-07-25T02:22:57.197Z,98646.50
2023-07-25T02:23:38.848Z,98650.00
2023-07-25T02:24:20.654Z,98590.91
2023-07-25T02:25:02.454Z,98658.09
2023-07-25T02:25:46.908Z,98644.66
2023-07-25T02:26:28.786Z,98607.56
2023-07-25T02:27:10.426Z,98580.44
2023-07-25T02:27:52.099Z,98640.34
2023-07-25T02:28:35.930Z,98633.88
2023-07-25T02:29:18.154Z,98650.28
2023-07-25T02:29:59.753Z,98650.28
2023-07-25T02:30:41.412Z,98629.59
2023-07-25T02:31:23.014Z,98643.03
2023-07-25T02:32:05.116Z,98634.44
2023-07-25T02:32:48.281Z,98634.97
2023-07-25T02:33:30.218Z,98635.78
2023-07-25T02:34:12.540Z,98622.34
2023-07-25T02:34:54.170Z,98632.00
2023-07-25T02:35:36.504Z,98631.75
2023-07-25T02:36:18.346Z,98626.09
2023-07-25T02:37:02.300Z,98607.84
2023-07-25T02:37:49.503Z,98630.94
2023-07-25T02:38:31.160Z,98611.84
2023-07-25T02:39:13.304Z,98634.19
2023-07-25T02:39:57.530Z,98624.50
2023-07-25T02:40:39.130Z,98608.09
2023-07-25T02:41:20.781Z,98596.03
2023-07-25T02:42:02.431Z,98635.50
2023-07-25T02:42:44.032Z,98638.75
2023-07-25T02:43:25.626Z,98638.19
2023-07-25T02:44:07.250Z,98633.34
2023-07-25T02:44:48.942Z,98633.88
2023-07-25T02:45:30.536Z,98629.88
2023-07-25T02:46:12.478Z,98616.69
2023-07-25T02:46:54.151Z,98629.59
2023-07-25T02:47:35.869Z,98566.19
2023-07-25T02:48:17.726Z,98611.59
2023-07-25T02:48:59.498Z,98608.09
2023-07-25T02:49:41.148Z,98601.66
2023-07-25T02:50:22.802Z,98595.75
2023-07-25T02:51:04.456Z,98592.25
2023-07-25T02:51:46.158Z,98586.91
2023-07-25T02:52:27.990Z,98586.91
2023-07-25T02:53:09.801Z,98570.75
2023-07-25T02:53:51.396Z,98575.31
2023-07-25T02:54:33.041Z,98576.94
2023-07-25T02:55:14.660Z,98488.06
2023-07-25T02:55:56.551Z,98583.94
2023-07-25T02:56:38.554Z,98569.44
2023-07-25T02:57:20.187Z,98577.22
2023-07-25T02:58:02.029Z,98559.22
2023-07-25T02:58:43.634Z,98579.91
2023-07-25T02:59:25.230Z,98578.81
2023-07-25T03:00:08.437Z,98575.34
2023-07-25T03:00:51.122Z,98573.19
2023-07-25T03:01:33.054Z,98568.88
2023-07-25T03:02:14.968Z,98514.13
2023-07-25T03:02:56.843Z,98553.84
2023-07-25T03:03:38.617Z,98534.75
2023-07-25T03:04:20.245Z,98518.94
2023-07-25T03:05:01.974Z,98492.34
2023-07-25T03:05:43.819Z,98542.56
2023-07-25T03:06:25.534Z,98471.66
2023-07-25T03:07:07.168Z,98530.75
2023-07-25T03:07:49.981Z,98504.19
2023-07-25T03:08:31.613Z,98465.78
2023-07-25T03:09:13.349Z,98513.56
2023-07-25T03:09:55.095Z,98547.38
2023-07-25T03:10:36.841Z,98446.44
2023-07-25T03:11:18.500Z,98502.84
2023-07-25T03:12:00.275Z,98478.13
2023-07-25T03:12:41.913Z,98488.88
2023-07-25T03:13:23.567Z,98469.28
2023-07-25T03:14:05.224Z,98520.00
2023-07-25T03:14:46.931Z,98485.66
2023-07-25T03:15:28.796Z,98499.09
2023-07-25T03:16:10.634Z,98530.75
2023-07-25T03:16:52.705Z,98537.72
2023-07-25T03:17:34.397Z,98521.88
2023-07-25T03:18:16.187Z,98495.84
2023-07-25T03:18:57.960Z,98530.47
2023-07-25T03:19:39.694Z,98480.56
2023-07-25T03:20:21.541Z,98511.13
2023-07-25T03:21:03.237Z,98513.31
2023-07-25T03:21:44.963Z,98492.59
2023-07-25T03:22:26.738Z,98527.53
2023-07-25T03:23:08.360Z,98522.16
2023-07-25T03:23:50.263Z,98518.66
2023-07-25T03:24:31.940Z,98534.50
2023-07-25T03:25:13.612Z,98493.94
2023-07-25T03:25:55.261Z,98525.09
2023-07-25T03:26:37.300Z,98466.56
2023-07-25T03:27:19.263Z,98509.50
2023-07-25T03:28:00.934Z,98507.09
2023-07-25T03:28:42.595Z,98510.31
2023-07-25T03:29:24.291Z,98509.50
2023-07-25T03:30:06.653Z,98493.66
2023-07-25T03:30:48.376Z,98519.19
2023-07-25T03:31:30.357Z,98513.81
2023-07-25T03:32:12.200Z,98508.72
2023-07-25T03:32:53.884Z,98480.84
2023-07-25T03:33:35.662Z,98469.25
2023-07-25T03:34:17.398Z,98496.38
2023-07-25T03:34:59.059Z,98511.44
2023-07-25T03:35:40.817Z,98515.47
2023-07-25T03:36:22.529Z,98508.22
2023-07-25T03:37:04.799Z,98520.81
2023-07-25T03:37:46.472Z,98479.47
2023-07-25T03:38:28.136Z,98493.72
2023-07-25T03:39:09.719Z,98499.88
2023-07-25T03:39:51.377Z,98503.34
2023-07-25T03:40:34.243Z,98504.47
2023-07-25T03:41:16.165Z,98451.81
2023-07-25T03:41:57.897Z,98518.94
2023-07-25T03:42:39.502Z,98504.69
2023-07-25T03:43:22.005Z,98496.66
2023-07-25T03:44:04.171Z,98465.22
2023-07-25T03:44:45.830Z,98471.38
2023-07-25T03:45:27.452Z,98505.25
2023-07-25T03:46:09.175Z,98479.16
2023-07-25T03:46:50.776Z,98524.03
2023-07-25T03:47:32.642Z,98523.75
2023-07-25T03:48:15.120Z,98521.63
2023-07-25T03:48:58.068Z,98521.63
2023-07-25T03:49:39.743Z,98522.69
2023-07-25T03:50:21.556Z,98523.25
2023-07-25T03:51:03.348Z,98525.38
2023-07-25T03:51:44.982Z,98512.22
2023-07-25T03:52:28.264Z,98524.59
2023-07-25T03:53:10.013Z,98480.50
2023-07-25T03:53:51.674Z,98528.31
2023-07-25T03:54:33.361Z,98515.19
2023-07-25T03:55:15.053Z,98539.34
2023-07-25T03:55:56.715Z,98469.78
2023-07-25T03:56:38.795Z,98492.09
2023-07-25T03:57:20.432Z,98510.88
2023-07-25T03:58:02.062Z,98525.13
2023-07-25T03:58:43.752Z,98484.56
2023-07-25T03:59:25.451Z,98525.91
2023-07-25T04:00:07.725Z,98523.22
2023-07-25T04:00:53.666Z,98523.78
2023-07-25T04:01:35.538Z,98471.16
2023-07-25T04:02:17.355Z,98502.84
2023-07-25T04:03:14.503Z,98535.59
2023-07-25T04:03:57.785Z,98532.91
2023-07-25T04:04:39.613Z,98542.03
2023-07-25T04:05:21.432Z,98536.66
2023-07-25T04:06:03.193Z,98537.19
2023-07-25T04:06:44.864Z,98528.06
2023-07-25T04:07:26.453Z,98507.41
2023-07-25T04:08:08.068Z,98544.72
2023-07-25T04:08:49.695Z,98543.63
2023-07-25T04:09:31.370Z,98525.94
2023-07-25T04:10:12.952Z,98531.28
2023-07-25T04:10:55.119Z,98541.47
2023-07-25T04:11:36.811Z,98540.16
2023-07-25T04:12:18.489Z,98544.97
2023-07-25T04:13:00.127Z,98532.91
2023-07-25T04:13:41.898Z,98545.22
2023-07-25T04:14:24.342Z,98540.94
2023-07-25T04:15:06.394Z,98524.28
2023-07-25T04:15:48.059Z,98475.69
2023-07-25T04:16:29.753Z,98535.56
2023-07-25T04:17:11.399Z,98525.88
2023-07-25T04:17:53.143Z,98522.41
2023-07-25T04:18:34.872Z,98474.88
2023-07-25T04:19:16.525Z,98512.19
2023-07-25T04:19:58.234Z,98519.44
2023-07-25T04:20:40.142Z,98512.72
2023-07-25T04:21:21.933Z,98509.22
2023-07-25T04:22:03.693Z,98517.25
2023-07-25T04:22:45.334Z,98513.25
2023-07-25T04:23:27.395Z,98520.78
2023-07-25T04:24:09.322Z,98506.03
2023-07-25T04:24:51.125Z,98515.69
2023-07-25T04:25:32.778Z,98512.50
2023-07-25T04:26:14.433Z,98519.72
2023-07-25T04:26:56.097Z,98523.22
2023-07-25T04:27:37.722Z,98525.91
2023-07-25T04:28:19.304Z,98528.34
2023-07-25T04:29:00.906Z,98540.69
2023-07-25T04:29:42.691Z,98533.97
2023-07-25T04:30:24.309Z,98539.63
2023-07-25T04:31:06.030Z,98468.69
2023-07-25T04:31:48.584Z,98539.91
2023-07-25T04:32:30.228Z,98533.47
2023-07-25T04:33:11.879Z,98544.72
2023-07-25T04:33:53.537Z,98547.13
2023-07-25T04:34:35.284Z,98545.25
2023-07-25T04:35:17.121Z,98546.84
2023-07-25T04:35:58.797Z,98544.97
2023-07-25T04:36:40.553Z,98542.81
2023-07-25T04:37:22.262Z,98547.41
2023-07-25T04:38:03.946Z,98542.03
2023-07-25T04:38:46.127Z,98550.09
2023-07-25T04:39:27.861Z,98547.94
2023-07-25T04:40:10.060Z,98538.00
2023-07-25T04:40:51.902Z,98544.47
2023-07-25T04:41:33.838Z,98543.38
2023-07-25T04:42:15.625Z,98551.69
2023-07-25T04:42:57.325Z,98534.50
2023-07-25T04:43:38.906Z,98556.00
2023-07-25T04:44:20.582Z,98533.97
2023-07-25T04:45:04.051Z,98546.84
2023-07-25T04:45:50.706Z,98567.00
2023-07-25T04:46:36.252Z,98567.81
2023-07-25T04:47:17.903Z,98557.59
2023-07-25T04:47:59.618Z,98558.66
2023-07-25T04:48:41.358Z,98562.16
2023-07-25T04:49:23.070Z,98566.72
2023-07-25T04:50:05.070Z,98567.00
2023-07-25T04:50:46.665Z,98565.66
2023-07-25T04:51:28.367Z,98560.25
2023-07-25T04:52:10.032Z,98560.81
2023-07-25T04:52:51.710Z,98565.91
2023-07-25T04:53:34.788Z,98572.63
2023-07-25T04:54:16.487Z,98556.22
2023-07-25T04:54:59.919Z,98578.25
2023-07-25T04:55:41.588Z,98575.81
2023-07-25T04:56:23.276Z,98576.38
2023-07-25T04:57:05.639Z,98574.44
2023-07-25T04:57:47.384Z,98554.06
2023-07-25T04:58:29.207Z,98572.56
2023-07-25T04:59:10.800Z,98564.53
2023-07-25T04:59:53.493Z,98579.81
2023-07-25T05:00:35.060Z,98576.88
2023-07-25T05:01:19.051Z,98570.94
2023-07-25T05:02:00.733Z,98569.88
2023-07-25T05:02:42.659Z,98572.84
2023-07-25T05:03:27.148Z,98576.81
2023-07-25T05:04:08.905Z,98552.09
2023-07-25T05:04:50.744Z,98576.25
2023-07-25T05:05:32.359Z,98550.47
2023-07-25T05:06:14.186Z,98548.88
2023-07-25T05:06:55.938Z,98522.06
2023-07-25T05:07:37.633Z,98570.34
2023-07-25T05:08:19.243Z,98562.81
2023-07-25T05:09:01.538Z,98551.81
2023-07-25T05:09:43.279Z,98564.41
2023-07-25T05:10:24.937Z,98567.38
2023-07-25T05:11:06.563Z,98566.78
2023-07-25T05:11:48.416Z,98566.28
2023-07-25T05:12:30.173Z,98516.41
2023-07-25T05:13:11.826Z,98563.13
2023-07-25T05:13:53.521Z,98570.38
2023-07-25T05:14:35.112Z,98572.03
2023-07-25T05:15:16.863Z,98577.44
2023-07-25T05:15:58.523Z,98571.00
2023-07-25T05:16:40.210Z,98578.53
2023-07-25T05:17:21.913Z,98581.22
2023-07-25T05:18:03.735Z,98556.25
2023-07-25T05:18:45.465Z,98510.59
2023-07-25T05:19:27.148Z,98575.56
2023-07-25T05:20:09.182Z,98592.28
2023-07-25T05:20:50.887Z,98586.88
2023-07-25T05:21:32.738Z,98568.88
2023-07-25T05:22:14.610Z,98573.97
2023-07-25T05:22:56.223Z,98581.25
2023-07-25T05:23:37.858Z,98576.16
2023-07-25T05:24:19.470Z,98579.91
2023-07-25T05:25:01.135Z,98580.41
2023-07-25T05:25:44.139Z,98576.41
2023-07-25T05:26:25.963Z,98588.22
2023-07-25T05:27:07.596Z,98594.94
2023-07-25T05:27:49.333Z,98594.66
2023-07-25T05:28:30.960Z,98544.19
2023-07-25T05:29:12.654Z,98601.13
2023-07-25T05:29:54.257Z,98597.63
2023-07-25T05:30:35.884Z,98588.75
2023-07-25T05:31:17.586Z,98599.25
2023-07-25T05:31:59.279Z,98586.88
2023-07-25T05:32:41.293Z,98585.00
2023-07-25T05:33:23.008Z,98596.78
2023-07-25T05:34:04.643Z,98597.34
2023-07-25T05:34:46.326Z,98598.69
2023-07-25T05:35:27.954Z,98598.97
2023-07-25T05:36:09.650Z,98593.84
2023-07-25T05:36:51.273Z,98597.34
2023-07-25T05:37:37.779Z,98591.44
2023-07-25T05:38:19.345Z,98593.31
2023-07-25T05:39:01.022Z,98531.28
2023-07-25T05:39:42.699Z,98591.72
2023-07-25T05:40:24.563Z,98578.28
2023-07-25T05:41:06.313Z,98578.00
2023-07-25T05:41:47.923Z,98565.38
2023-07-25T05:42:30.293Z,98570.25
2023-07-25T05:43:16.194Z,98572.66
2023-07-25T05:43:57.778Z,98579.91
2023-07-25T05:44:39.441Z,98576.13
2023-07-25T05:45:21.200Z,98583.38
2023-07-25T05:46:02.927Z,98556.25
2023-07-25T05:46:44.563Z,98563.75
2023-07-25T05:47:27.148Z,98570.22
2023-07-25T05:48:08.722Z,98579.09
2023-07-25T05:48:50.579Z,98572.09
2023-07-25T05:49:32.429Z,98579.31
2023-07-25T05:50:14.510Z,98576.09
2023-07-25T05:50:56.115Z,98576.09
2023-07-25T05:51:37.738Z,98576.38
2023-07-25T05:52:19.440Z,98559.72
2023-07-25T05:53:01.068Z,98577.44
2023-07-25T05:53:42.749Z,98557.81
2023-07-25T05:54:24.389Z,98570.44
2023-07-25T05:55:07.298Z,98566.69
2023-07-25T05:55:48.969Z,98564.28
2023-07-25T05:56:30.588Z,98569.66
2023-07-25T05:57:12.276Z,98558.09
2023-07-25T05:57:53.917Z,98536.34
2023-07-25T05:58:35.524Z,98556.75
2023-07-25T05:59:17.673Z,98554.06
2023-07-25T05:59:59.222Z,98562.38
2023-07-25T06:00:40.868Z,98554.31
2023-07-25T06:01:22.476Z,98553.78
2023-07-25T06:02:06.961Z,98557.03
2023-07-25T06:02:48.703Z,98550.84
2023-07-25T06:03:30.413Z,98568.34
2023-07-25T06:04:14.647Z,98525.91
2023-07-25T06:04:56.218Z,98565.63
2023-07-25T06:05:37.929Z,98573.69
2023-07-25T06:06:19.568Z,98586.06
2023-07-25T06:07:01.244Z,98575.84
2023-07-25T06:07:42.865Z,98568.34
2023-07-25T06:08:24.509Z,98585.56
2023-07-25T06:09:06.184Z,98573.72
2023-07-25T06:09:47.818Z,98574.78
2023-07-25T06:10:29.380Z,98577.75
2023-07-25T06:11:11.094Z,98572.34
2023-07-25T06:11:53.993Z,98566.47
2023-07-25T06:12:35.826Z,98568.34
2023-07-25T06:13:17.724Z,98561.09
2023-07-25T06:13:59.318Z,98536.09
2023-07-25T06:14:40.959Z,98553.28
2023-07-25T06:15:22.585Z,98561.06
2023-07-25T06:16:04.867Z,98564.03
2023-07-25T06:16:46.531Z,98563.75
2023-07-25T06:17:28.198Z,98559.72
2023-07-25T06:18:09.833Z,98567.81
2023-07-25T06:18:51.497Z,98555.19
2023-07-25T06:19:33.125Z,98565.38
2023-07-25T06:20:15.035Z,98566.75
2023-07-25T06:20:56.778Z,98562.19
2023-07-25T06:21:38.431Z,98570.25
2023-07-25T06:22:20.075Z,98560.28
2023-07-25T06:23:02.759Z,98560.28
2023-07-25T06:23:44.543Z,98571.28
2023-07-25T06:24:26.326Z,98561.91
2023-07-25T06:25:13.901Z,98543.06
2023-07-25T06:25:55.607Z,98555.97
2023-07-25T06:26:37.191Z,98554.09
2023-07-25T06:27:18.832Z,98551.13
2023-07-25T06:28:01.553Z,98542.81
2023-07-25T06:28:43.295Z,98556.25
2023-07-25T06:29:24.969Z,98529.66
2023-07-25T06:30:07.414Z,98559.75
2023-07-25T06:30:49.350Z,98558.94
2023-07-25T06:31:31.342Z,98509.25
2023-07-25T06:32:13.340Z,98549.25
2023-07-25T06:32:55.588Z,98552.47
2023-07-25T06:33:37.380Z,98543.38
2023-07-25T06:34:18.993Z,98544.97
2023-07-25T06:35:00.629Z,98546.03
2023-07-25T06:35:42.366Z,98549.50
2023-07-25T06:36:24.000Z,98528.00
2023-07-25T06:37:06.137Z,98532.28
2023-07-25T06:37:47.764Z,98520.97
2023-07-25T06:38:29.398Z,98486.88
2023-07-25T06:39:11.005Z,98526.03
2023-07-25T06:39:53.939Z,98522.50
2023-07-25T06:40:36.237Z,98530.78
2023-07-25T06:41:17.925Z,98536.69
2023-07-25T06:41:59.544Z,98534.75
2023-07-25T06:42:43.701Z,98538.25
2023-07-25T06:43:27.905Z,98532.28
2023-07-25T06:44:11.098Z,98528.28
2023-07-25T06:44:54.078Z,98462.81
2023-07-25T06:45:35.724Z,98528.25
2023-07-25T06:46:17.459Z,98531.53
2023-07-25T06:46:59.163Z,98523.72
2023-07-25T06:47:40.966Z,98510.88
2023-07-25T06:48:22.840Z,98527.53
2023-07-25T06:49:04.469Z,98471.50
2023-07-25T06:49:46.095Z,98480.66
2023-07-25T06:50:27.741Z,98527.81
2023-07-25T06:51:09.823Z,98528.16
2023-07-25T06:51:51.567Z,98533.75
2023-07-25T06:52:33.276Z,98543.97
2023-07-25T06:53:14.959Z,98523.84
2023-07-25T06:53:56.593Z,98528.16
2023-07-25T06:54:42.423Z,98537.50
2023-07-25T06:55:24.081Z,98531.53
2023-07-25T06:56:05.670Z,98543.06
2023-07-25T06:56:47.347Z,98518.34
2023-07-25T06:57:30.102Z,98534.41
2023-07-25T06:58:13.701Z,98522.03
2023-07-25T06:58:56.302Z,98508.66
2023-07-25T06:59:37.883Z,98524.72
2023-07-25T07:00:19.948Z,98520.41
2023-07-25T07:01:01.657Z,98514.47
2023-07-25T07:01:43.459Z,98504.78
2023-07-25T07:02:25.199Z,98494.63
2023-07-25T07:03:07.452Z,98505.59
2023-07-25T07:03:49.139Z,98520.31
2023-07-25T07:04:30.851Z,98518.88
2023-07-25T07:05:28.033Z,98517.25
2023-07-25T07:06:11.508Z,98519.88
2023-07-25T07:06:53.105Z,98515.81
2023-07-25T07:07:34.932Z,98511.25
2023-07-25T07:08:16.597Z,98523.66
2023-07-25T07:08:58.538Z,98514.53
2023-07-25T07:09:40.192Z,98518.50
2023-07-25T07:10:21.834Z,98519.03
2023-07-25T07:11:03.545Z,98512.28
2023-07-25T07:11:45.300Z,98509.53
2023-07-25T07:12:26.957Z,98501.19
2023-07-25T07:13:08.641Z,98504.66
2023-07-25T07:13:50.319Z,98495.75
2023-07-25T07:14:31.995Z,98511.81
2023-07-25T07:15:13.966Z,98475.66
2023-07-25T07:15:55.727Z,98512.13
2023-07-25T07:16:37.564Z,98508.16
2023-07-25T07:17:19.403Z,98508.34
2023-07-25T07:18:01.131Z,98509.41
2023-07-25T07:18:42.919Z,98501.78
2023-07-25T07:19:24.640Z,98503.31
2023-07-25T07:20:06.996Z,98484.00
2023-07-25T07:20:49.789Z,98499.03
2023-07-25T07:21:31.682Z,98498.25
2023-07-25T07:22:13.673Z,98498.53
2023-07-25T07:22:55.412Z,98498.00
2023-07-25T07:23:37.035Z,98499.72
2023-07-25T07:24:19.251Z,98504.06
2023-07-25T07:25:00.941Z,98501.94
2023-07-25T07:25:44.367Z,98498.44
2023-07-25T07:26:26.063Z,98487.44
2023-07-25T07:27:07.883Z,98499.16
2023-07-25T07:27:49.544Z,98488.91
2023-07-25T07:28:31.203Z,98495.91
2023-07-25T07:29:13.014Z,98494.56
2023-07-25T07:29:54.644Z,98448.50
2023-07-25T07:30:36.307Z,98480.69
2023-07-25T07:31:24.207Z,98483.91
2023-07-25T07:32:06.692Z,98490.94
2023-07-25T07:32:48.524Z,98496.94
2023-07-25T07:33:31.126Z,98493.19
2023-07-25T07:34:16.159Z,98483.31
2023-07-25T07:34:58.213Z,98472.91
2023-07-25T07:35:39.775Z,98481.84
2023-07-25T07:36:21.436Z,98492.69
2023-07-25T07:37:03.344Z,98476.59
2023-07-25T07:37:45.070Z,98470.47
2023-07-25T07:38:26.674Z,98478.81
2023-07-25T07:39:08.508Z,98486.53
2023-07-25T07:39:50.131Z,98493.78
2023-07-25T07:40:31.860Z,98472.88
2023-07-25T07:41:13.541Z,98454.94
2023-07-25T07:41:55.485Z,98487.34
2023-07-25T07:42:37.063Z,98474.19
2023-07-25T07:43:18.864Z,98427.59
2023-07-25T07:44:00.541Z,98483.56
2023-07-25T07:44:42.259Z,98470.09
2023-07-25T07:45:25.214Z,98419.16
2023-07-25T07:46:06.936Z,98482.41
2023-07-25T07:46:48.690Z,98477.50
2023-07-25T07:47:30.345Z,98478.50
2023-07-25T07:48:12.123Z,98478.56
2023-07-25T07:48:53.779Z,98487.72
2023-07-25T07:49:35.575Z,98488.69
2023-07-25T07:50:17.173Z,98485.94
2023-07-25T07:51:04.140Z,98476.78
2023-07-25T07:51:57.568Z,98489.41
2023-07-25T07:52:47.763Z,98479.19
2023-07-25T07:53:29.447Z,98428.09
2023-07-25T07:54:11.048Z,98459.34
2023-07-25T07:54:52.719Z,98486.44
2023-07-25T07:55:34.454Z,98494.72
2023-07-25T07:56:16.132Z,98491.16
2023-07-25T07:56:57.942Z,98476.69
2023-07-25T07:57:43.955Z,98491.59
2023-07-25T07:58:25.663Z,98485.09
2023-07-25T07:59:11.249Z,98489.06
2023-07-25T07:59:53.416Z,98491.06
2023-07-25T08:00:35.225Z,98480.88
2023-07-25T08:01:24.965Z,98480.34
2023-07-25T08:02:07.066Z,98503.41
2023-07-25T08:02:48.847Z,98496.97
2023-07-25T08:03:30.603Z,98494.63
2023-07-25T08:04:12.516Z,98482.13
2023-07-25T08:04:54.383Z,98499.41
2023-07-25T08:05:36.220Z,98496.97
2023-07-25T08:06:18.057Z,98492.97
2023-07-25T08:06:59.727Z,98495.47
2023-07-25T08:07:41.763Z,98489.00
2023-07-25T08:08:23.511Z,98495.66
2023-07-25T08:09:05.601Z,98497.84
2023-07-25T08:09:47.377Z,98498.38
2023-07-25T08:10:29.607Z,98493.91
2023-07-25T08:11:11.335Z,98496.22
2023-07-25T08:11:53.064Z,98485.53
2023-07-25T08:12:35.307Z,98505.38
2023-07-25T08:13:16.958Z,98480.34
2023-07-25T08:13:59.090Z,98484.84
2023-07-25T08:14:40.759Z,98492.72
2023-07-25T08:15:22.571Z,98489.81